createdAt,value
2022-08-05T00:02:24.046Z,23.53
2022-08-05T00:04:55.853Z,16.80
2022-08-05T00:07:58.917Z,20.10
2022-08-05T00:10:11.488Z,16.93
2022-08-05T00:12:56.120Z,18.87
2022-08-05T00:15:56.263Z,17.67
2022-08-05T00:18:19.855Z,15.60
2022-08-05T00:20:50.781Z,12.57
2022-08-05T00:23:44.685Z,12.40
2022-08-05T00:26:06.599Z,13.47
2022-08-05T00:28:34.977Z,11.67
2022-08-05T00:31:04.673Z,12.50
2022-08-05T00:34:53.220Z,11.47
2022-08-05T00:37:12.356Z,11.50
2022-08-05T00:39:13.887Z,10.83
2022-08-05T00:41:55.289Z,8.90
2022-08-05T00:44:30.835Z,11.67
2022-08-05T00:47:02.171Z,8.73
2022-08-05T00:49:51.080Z,11.20
2022-08-05T00:52:28.439Z,9.10
2022-08-05T00:54:56.505Z,7.43
2022-08-05T00:57:25.465Z,11.30
2022-08-05T01:00:11.205Z,10.50
2022-08-05T01:02:40.885Z,8.83
2022-08-05T01:05:10.348Z,6.70
2022-08-05T01:07:38.032Z,10.43
2022-08-05T01:10:29.907Z,6.60
2022-08-05T01:13:13.352Z,16.00
2022-08-05T01:15:54.919Z,7.20
2022-08-05T01:18:27.471Z,8.17
2022-08-05T01:21:09.406Z,8.60
2022-08-05T01:23:53.895Z,13.70
2022-08-05T01:26:37.770Z,8.43
2022-08-05T01:29:10.588Z,6.50
2022-08-05T01:31:44.771Z,6.70
2022-08-05T01:34:18.300Z,10.90
2022-08-05T01:36:51.667Z,7.90
2022-08-05T01:39:46.703Z,5.00
2022-08-05T01:42:09.771Z,8.40
2022-08-05T01:44:40.428Z,5.00
2022-08-05T01:47:09.614Z,10.87
2022-08-05T01:50:00.438Z,7.03
2022-08-05T01:52:26.636Z,10.30
2022-08-05T01:54:58.600Z,9.97
2022-08-05T01:58:29.497Z,5.17
2022-08-05T02:00:19.692Z,3.90
2022-08-05T02:02:55.080Z,7.20
2022-08-05T02:05:28.675Z,7.50
2022-08-05T02:08:01.462Z,6.80
2022-08-05T02:10:34.772Z,6.50
2022-08-05T02:13:04.889Z,6.53
2022-08-05T02:15:48.583Z,6.57
2022-08-05T02:18:30.855Z,5.57
2022-08-05T02:21:05.685Z,6.80
2022-08-05T02:23:35.829Z,6.90
2022-08-05T02:26:06.602Z,7.67
2022-08-05T02:28:41.725Z,4.43
2022-08-05T02:31:17.136Z,6.40
2022-08-05T02:33:57.743Z,7.07
2022-08-05T02:36:27.306Z,4.97
2022-08-05T02:38:57.747Z,4.97
2022-08-05T02:41:28.424Z,7.70
2022-08-05T02:44:11.174Z,9.13
2022-08-05T02:46:43.842Z,11.23
2022-08-05T02:49:21.930Z,5.10
2022-08-05T02:52:03.552Z,7.20
2022-08-05T02:54:36.039Z,12.73
2022-08-05T02:57:10.410Z,8.10
2022-08-05T02:59:54.181Z,7.20
2022-08-05T03:02:27.679Z,10.67
2022-08-05T03:04:56.441Z,9.90
2022-08-05T03:07:40.504Z,9.10
2022-08-05T03:10:13.265Z,10.97
2022-08-05T03:12:41.327Z,7.40
2022-08-05T03:15:12.361Z,10.50
2022-08-05T03:17:44.735Z,9.03
2022-08-05T03:20:13.493Z,12.77
2022-08-05T03:22:43.936Z,5.93
2022-08-05T03:25:33.079Z,7.80
2022-08-05T03:28:03.470Z,7.60
2022-08-05T03:30:34.178Z,13.60
2022-08-05T03:33:05.792Z,13.50
2022-08-05T03:35:41.012Z,11.13
2022-08-05T03:38:11.568Z,6.70
2022-08-05T03:40:41.194Z,13.67
2022-08-05T03:43:59.167Z,8.60
2022-08-05T03:46:01.508Z,9.03
2022-08-05T03:48:35.382Z,9.07
2022-08-05T03:52:37.066Z,8.00
2022-08-05T03:55:50.895Z,7.27
2022-08-05T03:56:50.018Z,6.43
2022-08-05T03:59:20.363Z,9.20
2022-08-05T04:01:51.185Z,10.00
2022-08-05T04:04:22.277Z,8.33
2022-08-05T04:06:54.302Z,10.90
2022-08-05T04:09:26.391Z,9.97
2022-08-05T04:11:56.408Z,10.13
2022-08-05T04:14:30.024Z,11.40
2022-08-05T04:16:58.969Z,10.40
2022-08-05T04:19:28.911Z,9.40
2022-08-05T04:22:09.352Z,8.43
2022-08-05T04:24:44.360Z,11.33
2022-08-05T04:27:13.248Z,10.57
2022-08-05T04:29:41.898Z,8.07
2022-08-05T04:32:10.433Z,18.87
2022-08-05T04:34:42.967Z,9.40
2022-08-05T04:37:11.319Z,9.63
2022-08-05T04:39:39.135Z,9.20
2022-08-05T04:42:10.894Z,7.60
2022-08-05T04:44:39.282Z,10.93
2022-08-05T04:47:09.805Z,8.43
2022-08-05T04:50:02.749Z,9.63
2022-08-05T04:52:28.149Z,11.00
2022-08-05T04:54:57.485Z,18.37
2022-08-05T04:57:25.644Z,8.80
2022-08-05T04:59:57.301Z,11.50
2022-08-05T05:02:41.997Z,11.03
2022-08-05T05:05:25.964Z,12.40
2022-08-05T05:08:01.569Z,9.80
2022-08-05T05:10:30.732Z,8.03
2022-08-05T05:13:03.795Z,8.73
2022-08-05T05:15:59.260Z,10.20
2022-08-05T05:18:30.960Z,7.70
2022-08-05T05:21:03.291Z,8.87
2022-08-05T05:23:38.988Z,8.00
2022-08-05T05:26:18.917Z,9.47
2022-08-05T05:28:46.641Z,10.93
2022-08-05T05:31:14.469Z,11.83
2022-08-05T05:33:59.575Z,9.20
2022-08-05T05:36:31.720Z,11.10
2022-08-05T05:38:59.539Z,10.43
2022-08-05T05:41:39.991Z,11.97
2022-08-05T05:44:34.466Z,8.47
2022-08-05T05:46:58.045Z,10.67
2022-08-05T05:49:26.042Z,6.40
2022-08-05T05:51:55.500Z,9.77
2022-08-05T05:54:50.389Z,13.43
2022-08-05T05:57:13.843Z,9.40
2022-08-05T05:59:46.817Z,9.07
2022-08-05T06:02:16.832Z,10.70
2022-08-05T06:04:44.754Z,12.07
2022-08-05T06:07:22.443Z,9.23
2022-08-05T06:10:01.392Z,10.47
2022-08-05T06:12:31.820Z,8.60
2022-08-05T06:15:02.214Z,8.43
2022-08-05T06:17:30.863Z,10.00
2022-08-05T06:19:59.713Z,15.03
2022-08-05T06:22:30.041Z,7.60
2022-08-05T06:24:58.016Z,8.93
2022-08-05T06:28:10.625Z,8.40
2022-08-05T06:30:17.863Z,9.70
2022-08-05T06:32:50.583Z,11.23
2022-08-05T06:36:02.879Z,9.90
2022-08-05T06:38:11.339Z,8.10
2022-08-05T06:40:42.249Z,8.57
2022-08-05T06:43:59.048Z,11.00
2022-08-05T06:46:06.732Z,9.33
2022-08-05T06:48:53.271Z,12.37
2022-08-05T06:51:29.543Z,7.97
2022-08-05T06:54:02.669Z,12.70
2022-08-05T06:56:33.890Z,9.60
2022-08-05T06:59:02.553Z,8.83
2022-08-05T07:01:32.340Z,5.77
2022-08-05T07:04:01.471Z,8.40
2022-08-05T07:06:30.371Z,6.83
2022-08-05T07:09:04.209Z,13.37
2022-08-05T07:11:37.296Z,10.40
2022-08-05T07:14:29.972Z,13.33
2022-08-05T07:18:01.764Z,6.23
2022-08-05T07:20:31.665Z,7.77
2022-08-05T07:22:39.540Z,12.27
2022-08-05T07:25:23.217Z,8.47
2022-08-05T07:28:05.759Z,11.80
2022-08-05T07:30:39.902Z,5.30
2022-08-05T07:33:15.520Z,8.50
2022-08-05T07:36:02.372Z,9.60
2022-08-05T07:38:42.492Z,7.03
2022-08-05T07:41:35.067Z,8.13
2022-08-05T07:44:05.008Z,7.93
2022-08-05T07:46:33.765Z,8.63
2022-08-05T07:49:05.750Z,12.17
2022-08-05T07:51:37.371Z,8.83
2022-08-05T07:54:10.054Z,6.67
2022-08-05T07:57:01.810Z,10.30
2022-08-05T07:59:38.223Z,8.23
2022-08-05T08:02:15.694Z,9.27
2022-08-05T08:04:49.985Z,7.50
2022-08-05T08:07:18.561Z,9.40
2022-08-05T08:09:52.310Z,6.70
2022-08-05T08:12:37.142Z,9.17
2022-08-05T08:15:15.680Z,10.67
2022-08-05T08:17:49.772Z,11.33
2022-08-05T08:20:59.896Z,9.37
2022-08-05T08:23:11.734Z,12.50
2022-08-05T08:25:59.747Z,5.63
2022-08-05T08:28:36.868Z,8.70
2022-08-05T08:31:05.727Z,9.50
2022-08-05T08:33:37.624Z,6.60
2022-08-05T08:36:38.646Z,7.93
2022-08-05T08:38:56.149Z,10.47
2022-08-05T08:41:51.078Z,7.43
2022-08-05T08:45:23.663Z,6.90
2022-08-05T08:47:47.014Z,6.43
2022-08-05T08:50:22.231Z,7.77
2022-08-05T08:52:42.549Z,9.80
2022-08-05T08:55:19.515Z,11.10
2022-08-05T08:58:04.180Z,7.30
2022-08-05T09:00:33.314Z,10.80
2022-08-05T09:03:06.517Z,7.53
2022-08-05T09:05:38.837Z,6.00
2022-08-05T09:08:26.610Z,18.97
2022-08-05T09:10:55.212Z,6.90
2022-08-05T09:13:23.612Z,10.50
2022-08-05T09:15:52.853Z,5.70
2022-08-05T09:18:22.797Z,10.23
2022-08-05T09:20:51.277Z,8.47
2022-08-05T09:23:21.967Z,5.47
2022-08-05T09:26:02.880Z,9.33
2022-08-05T09:28:33.775Z,5.20
2022-08-05T09:31:43.960Z,10.83
2022-08-05T09:33:56.211Z,6.90
2022-08-05T09:36:27.673Z,8.40
2022-08-05T09:39:02.826Z,4.77
2022-08-05T09:41:32.923Z,5.77
2022-08-05T09:44:06.813Z,7.97
2022-08-05T09:46:35.859Z,5.17
2022-08-05T09:49:08.461Z,9.10
2022-08-05T09:51:49.557Z,11.17
2022-08-05T09:54:28.857Z,8.67
2022-08-05T09:57:01.351Z,5.00
2022-08-05T09:59:29.771Z,5.70
2022-08-05T10:02:07.678Z,10.23
2022-08-05T10:04:38.406Z,6.40
2022-08-05T10:07:20.964Z,3.90
2022-08-05T10:10:14.127Z,5.60
2022-08-05T10:12:49.731Z,8.80
2022-08-05T10:15:23.226Z,6.30
2022-08-05T10:18:12.930Z,9.10
2022-08-05T10:20:47.959Z,5.53
2022-08-05T10:23:33.960Z,8.77
2022-08-05T10:26:52.358Z,5.80
2022-08-05T10:28:57.838Z,10.87
2022-08-05T10:32:54.813Z,6.20
2022-08-05T10:34:14.747Z,8.20
2022-08-05T10:36:45.044Z,7.77
2022-08-05T10:39:24.907Z,9.60
2022-08-05T10:42:09.244Z,9.70
2022-08-05T10:44:39.995Z,9.37
2022-08-05T10:47:26.844Z,6.43
2022-08-05T10:50:20.555Z,5.40
2022-08-05T10:52:58.797Z,6.37
2022-08-05T10:55:27.606Z,10.43
2022-08-05T10:58:09.215Z,7.20
2022-08-05T11:00:42.154Z,5.60
2022-08-05T11:03:25.730Z,6.70
2022-08-05T11:06:15.651Z,5.60
2022-08-05T11:09:16.792Z,8.03
2022-08-05T11:11:52.593Z,7.80
2022-08-05T11:14:49.497Z,4.53
2022-08-05T11:17:57.566Z,7.23
2022-08-05T11:20:37.457Z,8.93
2022-08-05T11:24:05.160Z,4.57
2022-08-05T11:26:28.190Z,5.70
2022-08-05T11:29:12.567Z,5.07
2022-08-05T11:31:58.790Z,8.40
2022-08-05T11:34:39.921Z,8.40
2022-08-05T11:38:27.890Z,4.00
2022-08-05T11:41:13.976Z,3.60
2022-08-05T11:44:04.491Z,7.30
2022-08-05T11:46:36.686Z,3.70
2022-08-05T11:49:07.999Z,4.00
2022-08-05T11:51:44.707Z,5.00
2022-08-05T11:54:33.094Z,3.87
2022-08-05T11:57:08.407Z,2.90
2022-08-05T11:59:52.033Z,3.80
2022-08-05T12:02:30.686Z,4.40
2022-08-05T12:05:00.883Z,5.70
2022-08-05T12:08:08.483Z,3.03
2022-08-05T12:10:24.854Z,3.30
2022-08-05T12:13:17.058Z,11.27
2022-08-05T12:15:49.916Z,4.30
2022-08-05T12:18:24.335Z,5.20
2022-08-05T12:20:52.397Z,5.40
2022-08-05T12:23:20.244Z,4.80
2022-08-05T12:25:53.338Z,3.77
2022-08-05T12:28:36.779Z,4.20
2022-08-05T12:31:05.538Z,5.67
2022-08-05T12:33:36.659Z,7.13
2022-08-05T12:36:08.415Z,6.40
2022-08-05T12:38:37.809Z,5.47
2022-08-05T12:41:13.407Z,4.97
2022-08-05T12:43:53.680Z,6.07
2022-08-05T12:46:26.561Z,6.20
2022-08-05T12:49:13.193Z,4.30
2022-08-05T12:52:13.975Z,5.90
2022-08-05T12:54:49.709Z,5.27
2022-08-05T12:57:19.306Z,6.17
2022-08-05T13:02:00.105Z,4.20
2022-08-05T13:02:41.428Z,6.80
2022-08-05T13:05:12.581Z,6.00
2022-08-05T13:08:01.097Z,7.17
2022-08-05T13:10:32.326Z,4.10
2022-08-05T13:12:59.908Z,4.77
2022-08-05T13:15:42.160Z,3.77
2022-08-05T13:18:20.195Z,7.63
2022-08-05T13:20:48.983Z,4.90
2022-08-05T13:23:22.175Z,5.80
2022-08-05T13:25:59.248Z,4.40
2022-08-05T13:28:28.866Z,5.60
2022-08-05T13:30:58.058Z,3.93
2022-08-05T13:34:21.945Z,6.10
2022-08-05T13:36:14.434Z,4.97
2022-08-05T13:38:43.218Z,6.83
2022-08-05T13:41:11.207Z,6.30
2022-08-05T13:43:45.550Z,4.60
2022-08-05T13:46:50.544Z,6.37
2022-08-05T13:49:13.647Z,4.93
2022-08-05T13:51:46.254Z,4.67
2022-08-05T13:54:16.143Z,5.87
2022-08-05T13:56:51.556Z,4.43
2022-08-05T13:59:24.116Z,4.83
2022-08-05T14:01:58.146Z,4.07
2022-08-05T14:04:50.355Z,5.33
2022-08-05T14:07:55.668Z,3.17
2022-08-05T14:10:12.020Z,4.93
2022-08-05T14:12:39.952Z,5.50
2022-08-05T14:16:08.817Z,4.53
2022-08-05T14:18:01.045Z,10.23
2022-08-05T14:20:29.473Z,5.27
2022-08-05T14:22:57.576Z,5.70
2022-08-05T14:25:27.971Z,5.10
2022-08-05T14:27:56.409Z,4.70
2022-08-05T14:30:28.067Z,5.17
2022-08-05T14:32:56.705Z,4.70
2022-08-05T14:35:37.087Z,6.47
2022-08-05T14:38:05.311Z,6.30
2022-08-05T14:40:32.948Z,8.40
2022-08-05T14:43:01.636Z,5.33
2022-08-05T14:45:29.350Z,5.13
2022-08-05T14:48:05.379Z,4.63
2022-08-05T14:50:39.743Z,7.90
2022-08-05T14:53:08.703Z,4.87
2022-08-05T14:55:39.060Z,6.00
2022-08-05T14:58:11.623Z,7.03
2022-08-05T15:00:58.893Z,4.60
2022-08-05T15:03:34.087Z,5.47
2022-08-05T15:06:15.377Z,6.20
2022-08-05T15:08:59.146Z,4.73
2022-08-05T15:11:51.173Z,7.20
2022-08-05T15:14:33.461Z,7.17
2022-08-05T15:17:04.159Z,4.20
2022-08-05T15:19:32.203Z,8.73
2022-08-05T15:22:01.693Z,5.67
2022-08-05T15:24:29.936Z,3.23
2022-08-05T15:26:58.467Z,4.63
2022-08-05T15:29:30.252Z,5.03
2022-08-05T15:32:02.410Z,3.43
2022-08-05T15:34:34.004Z,5.30
2022-08-05T15:37:06.950Z,5.77
2022-08-05T15:40:59.880Z,2.97
2022-08-05T15:42:54.165Z,5.83
2022-08-05T15:45:38.546Z,7.30
2022-08-05T15:48:07.043Z,3.87
2022-08-05T15:50:34.958Z,6.40
2022-08-05T15:53:05.586Z,6.10
2022-08-05T15:56:01.789Z,3.87
2022-08-05T15:58:23.112Z,7.53
2022-08-05T16:01:11.797Z,5.63
2022-08-05T16:03:41.086Z,4.40
2022-08-05T16:06:11.519Z,5.20
2022-08-05T16:08:40.777Z,3.57
2022-08-05T16:11:08.753Z,4.10
2022-08-05T16:13:36.378Z,4.30
2022-08-05T16:16:04.862Z,8.93
2022-08-05T16:18:33.610Z,4.57
2022-08-05T16:21:03.979Z,4.60
2022-08-05T16:23:53.223Z,3.70
2022-08-05T16:26:26.555Z,5.10
2022-08-05T16:28:56.054Z,4.80
2022-08-05T16:31:24.153Z,4.67
2022-08-05T16:33:53.667Z,3.00
2022-08-05T16:36:23.835Z,4.73
2022-08-05T16:38:54.498Z,3.80
2022-08-05T16:42:15.369Z,2.90
2022-08-05T16:44:14.299Z,3.60
2022-08-05T16:46:55.948Z,3.13
2022-08-05T16:49:26.314Z,3.30
2022-08-05T16:51:56.900Z,4.40
2022-08-05T16:54:28.886Z,3.60
2022-08-05T16:57:00.968Z,5.63
2022-08-05T16:59:30.714Z,2.63
2022-08-05T17:01:59.519Z,5.70
2022-08-05T17:04:28.767Z,3.17
2022-08-05T17:06:59.977Z,7.07
2022-08-05T17:09:29.527Z,2.87
2022-08-05T17:11:59.941Z,4.30
2022-08-05T17:14:36.647Z,9.53
2022-08-05T17:17:14.479Z,3.13
2022-08-05T17:19:45.456Z,5.37
2022-08-05T17:22:24.446Z,7.23
2022-08-05T17:24:57.449Z,5.30
2022-08-05T17:27:27.162Z,3.40
2022-08-05T17:30:00.628Z,5.93
2022-08-05T17:32:30.269Z,5.53
2022-08-05T17:35:01.517Z,4.17
2022-08-05T17:37:41.397Z,7.67
2022-08-05T17:40:15.129Z,2.50
2022-08-05T17:42:50.533Z,3.03
2022-08-05T17:45:22.642Z,2.87
2022-08-05T17:47:54.517Z,3.50
2022-08-05T17:50:29.485Z,3.00
2022-08-05T17:52:59.981Z,5.97
2022-08-05T17:55:38.220Z,3.30
2022-08-05T17:58:12.785Z,3.70
2022-08-05T18:00:47.188Z,2.97
2022-08-05T18:06:12.244Z,10.63
2022-08-05T18:08:44.846Z,2.23
2022-08-05T18:11:23.616Z,3.53
2022-08-05T18:13:54.029Z,3.00
2022-08-05T18:16:23.241Z,3.03
2022-08-05T18:18:51.198Z,4.30
2022-08-05T18:21:22.940Z,4.67
2022-08-05T18:23:54.325Z,3.23
2022-08-05T18:26:22.394Z,2.60
2022-08-05T18:28:57.500Z,2.30
2022-08-05T18:31:32.999Z,4.03
2022-08-05T18:34:03.499Z,5.20
2022-08-05T18:36:35.294Z,4.00
2022-08-05T18:39:03.270Z,3.83
2022-08-05T18:41:57.001Z,3.67
2022-08-05T18:44:25.951Z,2.20
2022-08-05T18:47:04.907Z,3.30
2022-08-05T18:49:57.935Z,2.10
2022-08-05T18:52:35.620Z,2.40
2022-08-05T18:55:06.060Z,3.23
2022-08-05T18:57:43.610Z,5.10
2022-08-05T19:00:27.047Z,6.10
2022-08-05T19:03:03.750Z,4.03
2022-08-05T19:06:13.328Z,2.83
2022-08-05T19:08:21.644Z,3.70
2022-08-05T19:10:49.726Z,3.90
2022-08-05T19:13:17.715Z,4.90
2022-08-05T19:15:57.218Z,2.10
2022-08-05T19:18:29.683Z,4.33
2022-08-05T19:20:57.364Z,3.03
2022-08-05T19:24:05.238Z,3.40
2022-08-05T19:26:13.858Z,3.47
2022-08-05T19:28:43.200Z,2.00
2022-08-05T19:31:13.009Z,3.63
2022-08-05T19:33:48.751Z,2.57
2022-08-05T19:36:24.792Z,2.67
2022-08-05T19:38:52.398Z,2.70
2022-08-05T19:41:22.055Z,3.80
2022-08-05T19:44:12.977Z,2.57
2022-08-05T19:46:43.625Z,3.03
2022-08-05T19:49:17.274Z,3.00
2022-08-05T19:52:09.240Z,3.07
2022-08-05T19:54:34.617Z,2.23
2022-08-05T19:57:08.690Z,2.20
2022-08-05T19:59:55.247Z,3.07
2022-08-05T20:02:27.094Z,4.07
2022-08-05T20:04:58.968Z,2.40
2022-08-05T20:07:45.903Z,2.53
2022-08-05T20:10:15.856Z,2.47
2022-08-05T20:12:48.996Z,2.83
2022-08-05T20:15:48.815Z,6.20
2022-08-05T20:18:10.333Z,3.33
2022-08-05T20:20:56.488Z,3.03
2022-08-05T20:23:38.794Z,3.17
2022-08-05T20:26:16.557Z,2.30
2022-08-05T20:28:46.094Z,2.23
2022-08-05T20:31:16.494Z,3.83
2022-08-05T20:33:45.155Z,3.33
2022-08-05T20:36:16.425Z,5.33
2022-08-05T20:38:54.450Z,7.90
2022-08-05T20:41:27.411Z,2.80
2022-08-05T20:44:18.674Z,4.77
2022-08-05T20:46:58.138Z,3.70
2022-08-05T20:49:26.342Z,5.40
2022-08-05T20:51:57.496Z,4.30
2022-08-05T20:54:59.680Z,2.40
2022-08-05T20:57:21.425Z,2.37
2022-08-05T21:00:20.803Z,3.80
2022-08-05T21:02:54.454Z,8.20
2022-08-05T21:05:23.806Z,3.30
2022-08-05T21:07:52.909Z,4.63
2022-08-05T21:10:21.583Z,5.03
2022-08-05T21:13:08.172Z,4.60
2022-08-05T21:15:37.793Z,3.47
2022-08-05T21:18:05.809Z,4.83
2022-08-05T21:20:35.010Z,3.40
2022-08-05T21:23:04.737Z,4.43
2022-08-05T21:25:33.543Z,7.23
2022-08-05T21:28:02.570Z,7.77
2022-08-05T21:30:31.327Z,7.20
2022-08-05T21:32:59.742Z,3.30
2022-08-05T21:35:55.966Z,5.50
2022-08-05T21:38:19.998Z,6.00
2022-08-05T21:40:47.738Z,3.27
2022-08-05T21:43:17.693Z,5.57
2022-08-05T21:45:57.719Z,4.73
2022-08-05T21:48:28.529Z,5.30
2022-08-05T21:50:56.200Z,3.17
2022-08-05T21:53:27.154Z,2.40
2022-08-05T21:56:05.944Z,3.03
2022-08-05T21:58:42.358Z,5.33
2022-08-05T22:01:24.055Z,5.50
2022-08-05T22:03:53.660Z,3.40
2022-08-05T22:06:35.569Z,3.57
2022-08-05T22:09:14.017Z,6.13
2022-08-05T22:11:48.556Z,5.00
2022-08-05T22:14:37.225Z,4.73
2022-08-05T22:17:06.905Z,3.20
2022-08-05T22:20:01.495Z,3.40
2022-08-05T22:22:29.610Z,2.80
2022-08-05T22:25:21.646Z,7.10
2022-08-05T22:28:10.843Z,8.97
2022-08-05T22:30:53.565Z,3.30
2022-08-05T22:33:58.042Z,3.20
2022-08-05T22:36:14.209Z,4.97
2022-08-05T22:38:42.916Z,5.40
2022-08-05T22:41:12.150Z,7.93
2022-08-05T22:43:42.673Z,5.20
2022-08-05T22:46:12.034Z,4.30
2022-08-05T22:48:40.968Z,3.67
2022-08-05T22:51:22.460Z,3.43
2022-08-05T22:53:51.892Z,2.63
2022-08-05T22:56:30.702Z,6.30
2022-08-05T22:59:00.124Z,5.03
2022-08-05T23:02:03.805Z,5.97
2022-08-05T23:04:20.271Z,4.10
2022-08-05T23:06:48.055Z,3.37
2022-08-05T23:09:52.806Z,5.33
2022-08-05T23:12:05.713Z,4.40
2022-08-05T23:14:33.809Z,5.53
2022-08-05T23:17:24.628Z,7.50
2022-08-05T23:20:02.237Z,7.70
2022-08-05T23:22:30.975Z,6.00
2022-08-05T23:24:58.846Z,6.33
2022-08-05T23:27:42.309Z,6.90
2022-08-05T23:30:16.622Z,4.83
2022-08-05T23:32:45.149Z,5.23
2022-08-05T23:35:13.032Z,7.23
2022-08-05T23:37:40.956Z,7.10
2022-08-05T23:40:11.896Z,3.53
2022-08-05T23:42:41.078Z,4.00
2022-08-05T23:45:15.832Z,4.13
2022-08-05T23:47:48.325Z,3.83
2022-08-05T23:50:17.099Z,8.00
2022-08-05T23:52:50.075Z,4.70
2022-08-05T23:55:18.950Z,3.00
2022-08-05T23:57:51.119Z,7.57
